sensor_id;sensor_type;location;lat;lon;timestamp;P1;durP1;ratioP1;P2;durP2;ratioP2
21733;SDS011;11029;47.820;10.534;2022-12-17T00:00:46;44.72;;;18.60;;
21733;SDS011;11029;47.820;10.534;2022-12-17T00:03:32;43.47;;;18.00;;
21733;SDS011;11029;47.820;10.534;2022-12-17T00:06:18;43.65;;;18.50;;
21733;SDS011;11029;47.820;10.534;2022-12-17T00:09:03;43.05;;;18.63;;
21733;SDS011;11029;47.820;10.534;2022-12-17T00:11:49;47.58;;;19.50;;
21733;SDS011;11029;47.820;10.534;2022-12-17T00:14:35;46.25;;;18.05;;
21733;SDS011;11029;47.820;10.534;2022-12-17T00:17:21;47.50;;;18.33;;
21733;SDS011;11029;47.820;10.534;2022-12-17T00:20:07;43.03;;;18.08;;
21733;SDS011;11029;47.820;10.534;2022-12-17T00:22:59;41.33;;;16.73;;
21733;SDS011;11029;47.820;10.534;2022-12-17T00:25:48;38.45;;;16.02;;
21733;SDS011;11029;47.820;10.534;2022-12-17T00:28:35;36.45;;;15.88;;
21733;SDS011;11029;47.820;10.534;2022-12-17T00:31:21;40.30;;;17.02;;
21733;SDS011;11029;47.820;10.534;2022-12-17T00:34:07;36.80;;;16.20;;
21733;SDS011;11029;47.820;10.534;2022-12-17T00:36:52;37.10;;;16.23;;
21733;SDS011;11029;47.820;10.534;2022-12-17T00:39:37;40.92;;;17.48;;
21733;SDS011;11029;47.820;10.534;2022-12-17T00:42:26;45.42;;;16.70;;
21733;SDS011;11029;47.820;10.534;2022-12-17T00:45:12;39.00;;;16.17;;
21733;SDS011;11029;47.820;10.534;2022-12-17T00:47:57;37.85;;;15.25;;
21733;SDS011;11029;47.820;10.534;2022-12-17T00:50:43;42.13;;;16.15;;
21733;SDS011;11029;47.820;10.534;2022-12-17T00:53:29;40.90;;;17.42;;
21733;SDS011;11029;47.820;10.534;2022-12-17T00:56:14;46.08;;;18.73;;
21733;SDS011;11029;47.820;10.534;2022-12-17T00:58:59;44.67;;;17.52;;
21733;SDS011;11029;47.820;10.534;2022-12-17T01:01:44;49.10;;;18.55;;
21733;SDS011;11029;47.820;10.534;2022-12-17T01:04:30;45.72;;;17.38;;
21733;SDS011;11029;47.820;10.534;2022-12-17T01:07:15;50.63;;;19.25;;
21733;SDS011;11029;47.820;10.534;2022-12-17T01:10:01;51.22;;;19.27;;
21733;SDS011;11029;47.820;10.534;2022-12-17T01:12:46;53.03;;;20.08;;
21733;SDS011;11029;47.820;10.534;2022-12-17T01:15:31;42.13;;;18.63;;
21733;SDS011;11029;47.820;10.534;2022-12-17T01:18:17;53.53;;;19.55;;
21733;SDS011;11029;47.820;10.534;2022-12-17T01:21:03;56.97;;;21.33;;
21733;SDS011;11029;47.820;10.534;2022-12-17T01:23:48;50.13;;;18.60;;
21733;SDS011;11029;47.820;10.534;2022-12-17T01:26:35;56.20;;;20.15;;
21733;SDS011;11029;47.820;10.534;2022-12-17T01:29:21;49.25;;;20.20;;
21733;SDS011;11029;47.820;10.534;2022-12-17T01:32:06;39.53;;;17.30;;
21733;SDS011;11029;47.820;10.534;2022-12-17T01:34:51;44.80;;;17.88;;
21733;SDS011;11029;47.820;10.534;2022-12-17T01:37:50;44.13;;;18.45;;
21733;SDS011;11029;47.820;10.534;2022-12-17T01:40:36;46.33;;;18.38;;
21733;SDS011;11029;47.820;10.534;2022-12-17T01:43:29;45.85;;;18.45;;
21733;SDS011;11029;47.820;10.534;2022-12-17T01:46:17;47.78;;;19.08;;
21733;SDS011;11029;47.820;10.534;2022-12-17T01:49:03;50.45;;;19.60;;
21733;SDS011;11029;47.820;10.534;2022-12-17T01:51:48;48.45;;;19.23;;
21733;SDS011;11029;47.820;10.534;2022-12-17T01:54:36;45.50;;;18.90;;
21733;SDS011;11029;47.820;10.534;2022-12-17T01:57:22;43.17;;;18.00;;
21733;SDS011;11029;47.820;10.534;2022-12-17T02:00:10;41.85;;;19.17;;
21733;SDS011;11029;47.820;10.534;2022-12-17T02:02:57;41.72;;;19.00;;
21733;SDS011;11029;47.820;10.534;2022-12-17T02:12:11;47.55;;;19.65;;
21733;SDS011;11029;47.820;10.534;2022-12-17T02:15:19;44.60;;;18.85;;
21733;SDS011;11029;47.820;10.534;2022-12-17T02:18:12;40.45;;;18.13;;
21733;SDS011;11029;47.820;10.534;2022-12-17T02:21:05;41.67;;;16.30;;
21733;SDS011;11029;47.820;10.534;2022-12-17T02:27:02;36.65;;;17.33;;
21733;SDS011;11029;47.820;10.534;2022-12-17T02:29:55;44.55;;;18.02;;
21733;SDS011;11029;47.820;10.534;2022-12-17T02:32:44;45.42;;;19.30;;
21733;SDS011;11029;47.820;10.534;2022-12-17T02:35:34;43.25;;;17.88;;
21733;SDS011;11029;47.820;10.534;2022-12-17T02:38:27;40.20;;;17.65;;
21733;SDS011;11029;47.820;10.534;2022-12-17T02:41:16;40.25;;;16.70;;
21733;SDS011;11029;47.820;10.534;2022-12-17T02:44:07;38.85;;;17.65;;
21733;SDS011;11029;47.820;10.534;2022-12-17T02:46:55;42.15;;;18.27;;
21733;SDS011;11029;47.820;10.534;2022-12-17T02:49:42;42.80;;;19.83;;
21733;SDS011;11029;47.820;10.534;2022-12-17T02:52:32;46.80;;;19.92;;
21733;SDS011;11029;47.820;10.534;2022-12-17T02:55:20;47.00;;;20.00;;
21733;SDS011;11029;47.820;10.534;2022-12-17T02:58:05;46.28;;;20.83;;
21733;SDS011;11029;47.820;10.534;2022-12-17T03:00:51;43.83;;;19.10;;
21733;SDS011;11029;47.820;10.534;2022-12-17T03:03:36;38.67;;;18.90;;
21733;SDS011;11029;47.820;10.534;2022-12-17T03:06:32;44.50;;;18.98;;
21733;SDS011;11029;47.820;10.534;2022-12-17T03:09:19;41.97;;;18.13;;
21733;SDS011;11029;47.820;10.534;2022-12-17T03:12:04;43.65;;;18.75;;
21733;SDS011;11029;47.820;10.534;2022-12-17T03:14:49;42.28;;;19.35;;
21733;SDS011;11029;47.820;10.534;2022-12-17T03:17:35;43.03;;;18.92;;
21733;SDS011;11029;47.820;10.534;2022-12-17T03:20:20;43.30;;;18.88;;
21733;SDS011;11029;47.820;10.534;2022-12-17T03:23:07;37.53;;;17.60;;
21733;SDS011;11029;47.820;10.534;2022-12-17T03:25:57;43.67;;;19.48;;
21733;SDS011;11029;47.820;10.534;2022-12-17T03:28:44;38.42;;;17.38;;
21733;SDS011;11029;47.820;10.534;2022-12-17T03:31:31;40.55;;;18.30;;
21733;SDS011;11029;47.820;10.534;2022-12-17T03:34:17;43.10;;;18.65;;
21733;SDS011;11029;47.820;10.534;2022-12-17T03:37:02;39.53;;;17.92;;
21733;SDS011;11029;47.820;10.534;2022-12-17T03:39:48;40.47;;;17.42;;
21733;SDS011;11029;47.820;10.534;2022-12-17T03:42:33;39.78;;;17.42;;
21733;SDS011;11029;47.820;10.534;2022-12-17T03:45:18;40.17;;;18.15;;
21733;SDS011;11029;47.820;10.534;2022-12-17T03:48:08;35.67;;;16.75;;
21733;SDS011;11029;47.820;10.534;2022-12-17T03:50:55;39.97;;;17.85;;
21733;SDS011;11029;47.820;10.534;2022-12-17T03:53:41;40.95;;;18.02;;
21733;SDS011;11029;47.820;10.534;2022-12-17T03:56:27;41.17;;;17.83;;
21733;SDS011;11029;47.820;10.534;2022-12-17T03:59:26;40.65;;;17.80;;
21733;SDS011;11029;47.820;10.534;2022-12-17T04:02:12;37.35;;;17.25;;
21733;SDS011;11029;47.820;10.534;2022-12-17T04:04:57;39.03;;;17.42;;
21733;SDS011;11029;47.820;10.534;2022-12-17T04:07:45;37.50;;;17.20;;
21733;SDS011;11029;47.820;10.534;2022-12-17T04:10:31;39.50;;;17.75;;
21733;SDS011;11029;47.820;10.534;2022-12-17T04:13:17;39.53;;;16.90;;
21733;SDS011;11029;47.820;10.534;2022-12-17T04:16:06;40.80;;;17.10;;
21733;SDS011;11029;47.820;10.534;2022-12-17T04:18:51;42.20;;;15.90;;
21733;SDS011;11029;47.820;10.534;2022-12-17T04:21:37;39.00;;;17.02;;
21733;SDS011;11029;47.820;10.534;2022-12-17T04:24:22;37.67;;;16.20;;
21733;SDS011;11029;47.820;10.534;2022-12-17T04:27:08;37.67;;;15.98;;
21733;SDS011;11029;47.820;10.534;2022-12-17T04:29:53;37.15;;;15.48;;
21733;SDS011;11029;47.820;10.534;2022-12-17T04:32:39;40.03;;;16.45;;
21733;SDS011;11029;47.820;10.534;2022-12-17T04:35:24;37.63;;;14.73;;
21733;SDS011;11029;47.820;10.534;2022-12-17T04:38:10;38.33;;;16.15;;
21733;SDS011;11029;47.820;10.534;2022-12-17T04:40:55;37.33;;;16.50;;
21733;SDS011;11029;47.820;10.534;2022-12-17T04:43:40;38.63;;;15.80;;
21733;SDS011;11029;47.820;10.534;2022-12-17T04:46:28;41.95;;;17.00;;
21733;SDS011;11029;47.820;10.534;2022-12-17T04:49:13;41.88;;;16.70;;
21733;SDS011;11029;47.820;10.534;2022-12-17T04:51:59;42.17;;;16.02;;
21733;SDS011;11029;47.820;10.534;2022-12-17T04:54:44;38.88;;;15.63;;
21733;SDS011;11029;47.820;10.534;2022-12-17T04:57:29;40.38;;;16.20;;
21733;SDS011;11029;47.820;10.534;2022-12-17T05:00:15;38.72;;;16.60;;
21733;SDS011;11029;47.820;10.534;2022-12-17T05:03:03;33.50;;;15.75;;
21733;SDS011;11029;47.820;10.534;2022-12-17T05:05:59;40.67;;;17.10;;
21733;SDS011;11029;47.820;10.534;2022-12-17T05:08:45;39.95;;;17.98;;
21733;SDS011;11029;47.820;10.534;2022-12-17T05:11:30;43.05;;;17.70;;
21733;SDS011;11029;47.820;10.534;2022-12-17T05:14:16;37.03;;;16.17;;
21733;SDS011;11029;47.820;10.534;2022-12-17T05:17:02;37.60;;;15.98;;
21733;SDS011;11029;47.820;10.534;2022-12-17T05:19:47;38.25;;;16.13;;
21733;SDS011;11029;47.820;10.534;2022-12-17T05:22:33;46.03;;;17.15;;
21733;SDS011;11029;47.820;10.534;2022-12-17T05:25:18;41.38;;;17.35;;
21733;SDS011;11029;47.820;10.534;2022-12-17T05:28:03;43.90;;;16.98;;
21733;SDS011;11029;47.820;10.534;2022-12-17T05:30:52;41.92;;;17.13;;
21733;SDS011;11029;47.820;10.534;2022-12-17T05:33:38;46.70;;;17.48;;
21733;SDS011;11029;47.820;10.534;2022-12-17T05:36:24;44.80;;;17.85;;
21733;SDS011;11029;47.820;10.534;2022-12-17T05:39:09;57.15;;;23.83;;
21733;SDS011;11029;47.820;10.534;2022-12-17T05:41:55;45.65;;;20.05;;
21733;SDS011;11029;47.820;10.534;2022-12-17T05:44:40;41.10;;;17.15;;
21733;SDS011;11029;47.820;10.534;2022-12-17T05:47:26;40.25;;;16.30;;
21733;SDS011;11029;47.820;10.534;2022-12-17T05:50:11;46.20;;;18.00;;
21733;SDS011;11029;47.820;10.534;2022-12-17T05:53:03;45.45;;;17.88;;
21733;SDS011;11029;47.820;10.534;2022-12-17T05:56:01;47.58;;;17.67;;
21733;SDS011;11029;47.820;10.534;2022-12-17T05:58:46;58.88;;;16.67;;
21733;SDS011;11029;47.820;10.534;2022-12-17T06:01:31;38.70;;;16.40;;
21733;SDS011;11029;47.820;10.534;2022-12-17T06:04:17;86.35;;;19.17;;
21733;SDS011;11029;47.820;10.534;2022-12-17T06:07:03;43.28;;;17.02;;
21733;SDS011;11029;47.820;10.534;2022-12-17T06:09:48;47.75;;;17.42;;
21733;SDS011;11029;47.820;10.534;2022-12-17T06:12:33;50.85;;;18.73;;
21733;SDS011;11029;47.820;10.534;2022-12-17T06:15:19;65.13;;;18.60;;
21733;SDS011;11029;47.820;10.534;2022-12-17T06:18:04;52.03;;;18.92;;
21733;SDS011;11029;47.820;10.534;2022-12-17T06:20:51;59.97;;;17.65;;
21733;SDS011;11029;47.820;10.534;2022-12-17T06:23:36;80.70;;;18.58;;
21733;SDS011;11029;47.820;10.534;2022-12-17T06:26:21;46.60;;;17.55;;
21733;SDS011;11029;47.820;10.534;2022-12-17T06:29:07;44.95;;;17.55;;
21733;SDS011;11029;47.820;10.534;2022-12-17T06:31:52;72.85;;;19.00;;
21733;SDS011;11029;47.820;10.534;2022-12-17T06:34:37;103.88;;;18.63;;
21733;SDS011;11029;47.820;10.534;2022-12-17T06:37:23;58.63;;;17.85;;
21733;SDS011;11029;47.820;10.534;2022-12-17T06:40:08;90.30;;;16.95;;
21733;SDS011;11029;47.820;10.534;2022-12-17T06:42:54;102.30;;;17.38;;
21733;SDS011;11029;47.820;10.534;2022-12-17T06:45:40;80.25;;;17.70;;
21733;SDS011;11029;47.820;10.534;2022-12-17T06:48:26;48.55;;;16.77;;
21733;SDS011;11029;47.820;10.534;2022-12-17T06:51:11;70.40;;;16.85;;
21733;SDS011;11029;47.820;10.534;2022-12-17T06:53:57;84.85;;;17.40;;
21733;SDS011;11029;47.820;10.534;2022-12-17T06:56:42;75.13;;;17.90;;
21733;SDS011;11029;47.820;10.534;2022-12-17T06:59:27;82.55;;;17.10;;
21733;SDS011;11029;47.820;10.534;2022-12-17T07:02:13;52.63;;;17.05;;
21733;SDS011;11029;47.820;10.534;2022-12-17T07:04:59;40.83;;;16.73;;
21733;SDS011;11029;47.820;10.534;2022-12-17T07:07:44;58.85;;;19.98;;
21733;SDS011;11029;47.820;10.534;2022-12-17T07:10:29;56.38;;;16.45;;
21733;SDS011;11029;47.820;10.534;2022-12-17T07:13:15;48.33;;;17.90;;
21733;SDS011;11029;47.820;10.534;2022-12-17T07:16:01;53.83;;;17.35;;
21733;SDS011;11029;47.820;10.534;2022-12-17T07:18:46;47.92;;;17.52;;
21733;SDS011;11029;47.820;10.534;2022-12-17T07:21:33;42.47;;;16.20;;
21733;SDS011;11029;47.820;10.534;2022-12-17T07:24:19;38.70;;;15.80;;
21733;SDS011;11029;47.820;10.534;2022-12-17T07:27:04;37.97;;;13.95;;
21733;SDS011;11029;47.820;10.534;2022-12-17T07:29:50;39.47;;;13.90;;
21733;SDS011;11029;47.820;10.534;2022-12-17T07:32:35;40.42;;;15.48;;
21733;SDS011;11029;47.820;10.534;2022-12-17T07:35:21;43.05;;;16.25;;
21733;SDS011;11029;47.820;10.534;2022-12-17T07:38:07;151.18;;;19.52;;
21733;SDS011;11029;47.820;10.534;2022-12-17T07:40:54;56.08;;;16.95;;
21733;SDS011;11029;47.820;10.534;2022-12-17T07:43:39;56.03;;;17.58;;
21733;SDS011;11029;47.820;10.534;2022-12-17T07:46:25;73.60;;;15.98;;
21733;SDS011;11029;47.820;10.534;2022-12-17T07:49:10;52.33;;;18.15;;
21733;SDS011;11029;47.820;10.534;2022-12-17T07:51:55;46.17;;;15.80;;
21733;SDS011;11029;47.820;10.534;2022-12-17T07:54:41;54.90;;;16.23;;
21733;SDS011;11029;47.820;10.534;2022-12-17T07:57:26;80.32;;;16.20;;
21733;SDS011;11029;47.820;10.534;2022-12-17T08:00:12;68.90;;;15.07;;
21733;SDS011;11029;47.820;10.534;2022-12-17T08:02:58;58.03;;;16.55;;
21733;SDS011;11029;47.820;10.534;2022-12-17T08:05:44;57.70;;;14.70;;
21733;SDS011;11029;47.820;10.534;2022-12-17T08:08:29;63.85;;;15.30;;
21733;SDS011;11029;47.820;10.534;2022-12-17T08:11:14;66.97;;;15.50;;
21733;SDS011;11029;47.820;10.534;2022-12-17T08:14:00;74.15;;;15.18;;
21733;SDS011;11029;47.820;10.534;2022-12-17T08:16:45;61.63;;;14.57;;
21733;SDS011;11029;47.820;10.534;2022-12-17T08:19:31;69.07;;;16.08;;
21733;SDS011;11029;47.820;10.534;2022-12-17T08:22:16;88.25;;;14.77;;
21733;SDS011;11029;47.820;10.534;2022-12-17T08:25:02;69.63;;;15.35;;
21733;SDS011;11029;47.820;10.534;2022-12-17T08:27:48;70.15;;;16.15;;
21733;SDS011;11029;47.820;10.534;2022-12-17T08:31:00;52.90;;;16.65;;
21733;SDS011;11029;47.820;10.534;2022-12-17T08:33:45;52.20;;;16.77;;
21733;SDS011;11029;47.820;10.534;2022-12-17T08:36:33;83.50;;;16.95;;
21733;SDS011;11029;47.820;10.534;2022-12-17T08:39:18;51.28;;;15.95;;
21733;SDS011;11029;47.820;10.534;2022-12-17T08:42:17;46.25;;;16.17;;
21733;SDS011;11029;47.820;10.534;2022-12-17T08:45:03;41.30;;;15.98;;
21733;SDS011;11029;47.820;10.534;2022-12-17T08:47:49;30.52;;;13.13;;
21733;SDS011;11029;47.820;10.534;2022-12-17T08:50:34;39.15;;;14.57;;
21733;SDS011;11029;47.820;10.534;2022-12-17T08:53:20;33.70;;;13.73;;
21733;SDS011;11029;47.820;10.534;2022-12-17T08:56:06;29.73;;;12.52;;
21733;SDS011;11029;47.820;10.534;2022-12-17T08:58:51;30.08;;;12.63;;
21733;SDS011;11029;47.820;10.534;2022-12-17T09:01:36;30.05;;;13.35;;
21733;SDS011;11029;47.820;10.534;2022-12-17T09:04:22;30.27;;;13.52;;
21733;SDS011;11029;47.820;10.534;2022-12-17T09:07:07;28.98;;;13.65;;
21733;SDS011;11029;47.820;10.534;2022-12-17T09:09:53;27.65;;;11.75;;
21733;SDS011;11029;47.820;10.534;2022-12-17T09:12:39;27.10;;;13.07;;
21733;SDS011;11029;47.820;10.534;2022-12-17T09:15:31;30.17;;;13.43;;
21733;SDS011;11029;47.820;10.534;2022-12-17T09:18:17;39.35;;;17.90;;
21733;SDS011;11029;47.820;10.534;2022-12-17T09:21:04;36.97;;;16.23;;
21733;SDS011;11029;47.820;10.534;2022-12-17T09:24:09;36.42;;;16.13;;
21733;SDS011;11029;47.820;10.534;2022-12-17T09:26:55;32.13;;;13.73;;
21733;SDS011;11029;47.820;10.534;2022-12-17T09:29:40;31.25;;;13.70;;
21733;SDS011;11029;47.820;10.534;2022-12-17T09:32:26;48.22;;;22.17;;
21733;SDS011;11029;47.820;10.534;2022-12-17T09:35:11;38.35;;;17.33;;
21733;SDS011;11029;47.820;10.534;2022-12-17T09:37:57;33.30;;;14.68;;
21733;SDS011;11029;47.820;10.534;2022-12-17T09:40:44;35.25;;;15.68;;
21733;SDS011;11029;47.820;10.534;2022-12-17T09:43:36;35.55;;;14.50;;
21733;SDS011;11029;47.820;10.534;2022-12-17T09:46:35;34.83;;;14.98;;
21733;SDS011;11029;47.820;10.534;2022-12-17T09:49:28;31.85;;;13.65;;
21733;SDS011;11029;47.820;10.534;2022-12-17T09:52:18;31.52;;;13.63;;
21733;SDS011;11029;47.820;10.534;2022-12-17T09:55:19;37.88;;;16.40;;
21733;SDS011;11029;47.820;10.534;2022-12-17T09:58:19;37.25;;;15.60;;
21733;SDS011;11029;47.820;10.534;2022-12-17T10:01:24;35.42;;;15.52;;
21733;SDS011;11029;47.820;10.534;2022-12-17T10:04:16;34.20;;;14.75;;
21733;SDS011;11029;47.820;10.534;2022-12-17T10:07:21;29.75;;;13.25;;
21733;SDS011;11029;47.820;10.534;2022-12-17T10:10:26;30.70;;;13.98;;
21733;SDS011;11029;47.820;10.534;2022-12-17T10:13:18;35.67;;;15.65;;
21733;SDS011;11029;47.820;10.534;2022-12-17T10:19:15;44.60;;;22.02;;
21733;SDS011;11029;47.820;10.534;2022-12-17T10:22:10;32.95;;;17.33;;
21733;SDS011;11029;47.820;10.534;2022-12-17T10:25:01;34.65;;;16.33;;
21733;SDS011;11029;47.820;10.534;2022-12-17T10:27:50;31.48;;;17.23;;
21733;SDS011;11029;47.820;10.534;2022-12-17T10:30:35;35.65;;;17.05;;
21733;SDS011;11029;47.820;10.534;2022-12-17T10:33:21;27.83;;;15.02;;
21733;SDS011;11029;47.820;10.534;2022-12-17T10:36:19;39.50;;;17.27;;
21733;SDS011;11029;47.820;10.534;2022-12-17T10:39:12;41.70;;;16.80;;
21733;SDS011;11029;47.820;10.534;2022-12-17T10:42:00;51.70;;;21.30;;
21733;SDS011;11029;47.820;10.534;2022-12-17T10:44:46;46.15;;;18.50;;
21733;SDS011;11029;47.820;10.534;2022-12-17T10:47:32;39.47;;;17.70;;
21733;SDS011;11029;47.820;10.534;2022-12-17T10:50:19;32.92;;;15.27;;
21733;SDS011;11029;47.820;10.534;2022-12-17T10:53:17;33.78;;;15.10;;
21733;SDS011;11029;47.820;10.534;2022-12-17T10:56:04;34.83;;;14.73;;
21733;SDS011;11029;47.820;10.534;2022-12-17T10:58:53;30.30;;;14.77;;
21733;SDS011;11029;47.820;10.534;2022-12-17T11:01:39;31.95;;;15.45;;
21733;SDS011;11029;47.820;10.534;2022-12-17T11:07:30;32.42;;;15.02;;
21733;SDS011;11029;47.820;10.534;2022-12-17T11:10:21;30.73;;;13.13;;
21733;SDS011;11029;47.820;10.534;2022-12-17T11:13:30;31.00;;;13.13;;
21733;SDS011;11029;47.820;10.534;2022-12-17T11:16:27;33.38;;;14.43;;
21733;SDS011;11029;47.820;10.534;2022-12-17T11:19:33;31.95;;;14.68;;
21733;SDS011;11029;47.820;10.534;2022-12-17T11:23:13;27.80;;;13.00;;
21733;SDS011;11029;47.820;10.534;2022-12-17T11:28:37;25.38;;;12.43;;
21733;SDS011;11029;47.820;10.534;2022-12-17T11:34:40;26.88;;;12.93;;
21733;SDS011;11029;47.820;10.534;2022-12-17T11:38:11;30.75;;;13.77;;
21733;SDS011;11029;47.820;10.534;2022-12-17T11:41:00;27.75;;;13.00;;
21733;SDS011;11029;47.820;10.534;2022-12-17T11:44:18;28.08;;;13.57;;
21733;SDS011;11029;47.820;10.534;2022-12-17T11:47:32;28.42;;;13.57;;
21733;SDS011;11029;47.820;10.534;2022-12-17T11:50:30;28.35;;;13.82;;
21733;SDS011;11029;47.820;10.534;2022-12-17T11:59:25;28.38;;;13.95;;
21733;SDS011;11029;47.820;10.534;2022-12-17T12:05:34;33.17;;;14.55;;
21733;SDS011;11029;47.820;10.534;2022-12-17T12:12:04;28.27;;;14.27;;
21733;SDS011;11029;47.820;10.534;2022-12-17T12:17:52;26.63;;;13.60;;
21733;SDS011;11029;47.820;10.534;2022-12-17T12:26:21;28.98;;;14.73;;
21733;SDS011;11029;47.820;10.534;2022-12-17T12:29:18;26.42;;;13.27;;
21733;SDS011;11029;47.820;10.534;2022-12-17T12:32:13;26.50;;;12.88;;
21733;SDS011;11029;47.820;10.534;2022-12-17T12:35:06;27.58;;;13.40;;
21733;SDS011;11029;47.820;10.534;2022-12-17T12:37:59;27.10;;;12.98;;
21733;SDS011;11029;47.820;10.534;2022-12-17T12:40:45;21.75;;;11.45;;
21733;SDS011;11029;47.820;10.534;2022-12-17T12:43:39;24.08;;;12.40;;
21733;SDS011;11029;47.820;10.534;2022-12-17T12:49:28;24.52;;;12.30;;
21733;SDS011;11029;47.820;10.534;2022-12-17T12:52:21;22.13;;;11.80;;
21733;SDS011;11029;47.820;10.534;2022-12-17T12:55:09;22.20;;;11.85;;
21733;SDS011;11029;47.820;10.534;2022-12-17T13:01:07;20.92;;;11.15;;
21733;SDS011;11029;47.820;10.534;2022-12-17T13:03:53;21.05;;;11.57;;
21733;SDS011;11029;47.820;10.534;2022-12-17T13:11:43;21.50;;;12.80;;
21733;SDS011;11029;47.820;10.534;2022-12-17T13:14:16;19.85;;;12.68;;
21733;SDS011;11029;47.820;10.534;2022-12-17T13:16:51;19.45;;;12.52;;
21733;SDS011;11029;47.820;10.534;2022-12-17T13:22:07;19.42;;;12.40;;
21733;SDS011;11029;47.820;10.534;2022-12-17T13:25:34;22.63;;;13.50;;
21733;SDS011;11029;47.820;10.534;2022-12-17T13:27:43;18.88;;;12.77;;
21733;SDS011;11029;47.820;10.534;2022-12-17T13:39:01;24.45;;;15.88;;
21733;SDS011;11029;47.820;10.534;2022-12-17T13:41:40;25.05;;;16.08;;
21733;SDS011;11029;47.820;10.534;2022-12-17T13:44:16;25.25;;;15.95;;
21733;SDS011;11029;47.820;10.534;2022-12-17T13:46:47;28.75;;;17.20;;
21733;SDS011;11029;47.820;10.534;2022-12-17T13:49:22;27.48;;;17.67;;
21733;SDS011;11029;47.820;10.534;2022-12-17T13:52:00;26.45;;;16.90;;
21733;SDS011;11029;47.820;10.534;2022-12-17T13:54:34;27.25;;;17.15;;
21733;SDS011;11029;47.820;10.534;2022-12-17T13:57:18;27.27;;;16.92;;
21733;SDS011;11029;47.820;10.534;2022-12-17T13:59:48;25.83;;;16.88;;
21733;SDS011;11029;47.820;10.534;2022-12-17T14:02:29;32.60;;;17.65;;
21733;SDS011;11029;47.820;10.534;2022-12-17T14:05:05;31.20;;;17.45;;
21733;SDS011;11029;47.820;10.534;2022-12-17T14:07:49;29.98;;;16.63;;
21733;SDS011;11029;47.820;10.534;2022-12-17T14:10:17;29.58;;;15.57;;
21733;SDS011;11029;47.820;10.534;2022-12-17T14:12:45;26.70;;;14.57;;
21733;SDS011;11029;47.820;10.534;2022-12-17T14:20:24;27.52;;;14.02;;
21733;SDS011;11029;47.820;10.534;2022-12-17T14:23:04;31.50;;;15.30;;
21733;SDS011;11029;47.820;10.534;2022-12-17T14:25:36;29.45;;;14.30;;
21733;SDS011;11029;47.820;10.534;2022-12-17T14:28:06;28.38;;;14.25;;
21733;SDS011;11029;47.820;10.534;2022-12-17T14:31:03;27.65;;;13.88;;
21733;SDS011;11029;47.820;10.534;2022-12-17T14:34:06;30.45;;;14.00;;
21733;SDS011;11029;47.820;10.534;2022-12-17T14:36:37;34.47;;;17.83;;
21733;SDS011;11029;47.820;10.534;2022-12-17T14:39:17;32.65;;;15.98;;
21733;SDS011;11029;47.820;10.534;2022-12-17T14:42:15;36.67;;;15.73;;
21733;SDS011;11029;47.820;10.534;2022-12-17T14:47:24;33.53;;;15.93;;
21733;SDS011;11029;47.820;10.534;2022-12-17T14:52:43;40.65;;;19.02;;
21733;SDS011;11029;47.820;10.534;2022-12-17T14:55:20;37.00;;;16.90;;
21733;SDS011;11029;47.820;10.534;2022-12-17T14:57:47;35.28;;;16.23;;
21733;SDS011;11029;47.820;10.534;2022-12-17T15:00:15;31.77;;;15.27;;
21733;SDS011;11029;47.820;10.534;2022-12-17T15:02:49;36.58;;;16.02;;
21733;SDS011;11029;47.820;10.534;2022-12-17T15:05:19;32.90;;;16.13;;
21733;SDS011;11029;47.820;10.534;2022-12-17T15:07:46;38.67;;;17.30;;
21733;SDS011;11029;47.820;10.534;2022-12-17T15:10:15;36.03;;;16.00;;
21733;SDS011;11029;47.820;10.534;2022-12-17T15:15:14;37.47;;;16.40;;
21733;SDS011;11029;47.820;10.534;2022-12-17T15:17:41;37.53;;;16.83;;
21733;SDS011;11029;47.820;10.534;2022-12-17T15:20:14;39.20;;;19.15;;
21733;SDS011;11029;47.820;10.534;2022-12-17T15:22:43;50.58;;;22.88;;
21733;SDS011;11029;47.820;10.534;2022-12-17T15:25:14;38.67;;;17.67;;
21733;SDS011;11029;47.820;10.534;2022-12-17T15:27:43;36.15;;;16.60;;
21733;SDS011;11029;47.820;10.534;2022-12-17T15:30:14;35.83;;;16.13;;
21733;SDS011;11029;47.820;10.534;2022-12-17T15:32:42;50.92;;;22.85;;
21733;SDS011;11029;47.820;10.534;2022-12-17T15:35:10;55.75;;;24.08;;
21733;SDS011;11029;47.820;10.534;2022-12-17T15:37:38;49.35;;;21.55;;
21733;SDS011;11029;47.820;10.534;2022-12-17T15:40:05;40.88;;;17.98;;
21733;SDS011;11029;47.820;10.534;2022-12-17T15:42:32;32.67;;;15.00;;
21733;SDS011;11029;47.820;10.534;2022-12-17T15:45:18;37.85;;;17.17;;
21733;SDS011;11029;47.820;10.534;2022-12-17T15:47:45;48.70;;;19.00;;
21733;SDS011;11029;47.820;10.534;2022-12-17T15:50:11;39.17;;;15.80;;
21733;SDS011;11029;47.820;10.534;2022-12-17T15:52:38;42.20;;;18.52;;
21733;SDS011;11029;47.820;10.534;2022-12-17T15:55:05;51.17;;;21.20;;
21733;SDS011;11029;47.820;10.534;2022-12-17T15:57:32;34.75;;;15.88;;
21733;SDS011;11029;47.820;10.534;2022-12-17T15:59:58;37.72;;;17.40;;
21733;SDS011;11029;47.820;10.534;2022-12-17T16:02:25;37.67;;;18.63;;
21733;SDS011;11029;47.820;10.534;2022-12-17T16:04:52;38.63;;;18.75;;
21733;SDS011;11029;47.820;10.534;2022-12-17T16:07:19;34.95;;;15.60;;
21733;SDS011;11029;47.820;10.534;2022-12-17T16:09:45;34.28;;;15.50;;
21733;SDS011;11029;47.820;10.534;2022-12-17T16:12:12;36.17;;;14.98;;
21733;SDS011;11029;47.820;10.534;2022-12-17T16:14:39;30.23;;;13.68;;
21733;SDS011;11029;47.820;10.534;2022-12-17T16:17:06;38.22;;;15.77;;
21733;SDS011;11029;47.820;10.534;2022-12-17T16:19:33;39.00;;;15.90;;
21733;SDS011;11029;47.820;10.534;2022-12-17T16:22:00;37.60;;;15.18;;
21733;SDS011;11029;47.820;10.534;2022-12-17T16:24:26;39.72;;;16.35;;
21733;SDS011;11029;47.820;10.534;2022-12-17T16:26:53;46.95;;;18.33;;
21733;SDS011;11029;47.820;10.534;2022-12-17T16:29:24;39.78;;;15.93;;
21733;SDS011;11029;47.820;10.534;2022-12-17T16:31:51;35.63;;;15.63;;
21733;SDS011;11029;47.820;10.534;2022-12-17T16:34:18;36.22;;;15.68;;
21733;SDS011;11029;47.820;10.534;2022-12-17T16:36:44;35.42;;;14.82;;
21733;SDS011;11029;47.820;10.534;2022-12-17T16:39:15;37.17;;;16.40;;
21733;SDS011;11029;47.820;10.534;2022-12-17T16:41:43;40.27;;;17.30;;
21733;SDS011;11029;47.820;10.534;2022-12-17T16:44:10;35.20;;;16.25;;
21733;SDS011;11029;47.820;10.534;2022-12-17T16:46:38;31.85;;;15.20;;
21733;SDS011;11029;47.820;10.534;2022-12-17T16:49:07;34.58;;;15.38;;
21733;SDS011;11029;47.820;10.534;2022-12-17T16:51:43;36.80;;;15.82;;
21733;SDS011;11029;47.820;10.534;2022-12-17T16:54:11;34.55;;;16.23;;
21733;SDS011;11029;47.820;10.534;2022-12-17T16:56:40;37.67;;;17.27;;
21733;SDS011;11029;47.820;10.534;2022-12-17T16:59:08;39.15;;;16.60;;
21733;SDS011;11029;47.820;10.534;2022-12-17T17:01:36;39.03;;;17.10;;
21733;SDS011;11029;47.820;10.534;2022-12-17T17:04:05;36.53;;;15.93;;
21733;SDS011;11029;47.820;10.534;2022-12-17T17:06:40;37.20;;;16.95;;